createdAt,value
2023-03-01T00:01:39.667Z,13.45
2023-03-01T00:04:05.777Z,13.46
2023-03-01T00:06:32.157Z,13.47
2023-03-01T00:08:58.522Z,13.46
2023-03-01T00:11:25.193Z,13.48
2023-03-01T00:13:51.292Z,13.47
2023-03-01T00:16:17.450Z,13.46
2023-03-01T00:18:43.588Z,13.46
2023-03-01T00:21:09.681Z,13.46
2023-03-01T00:23:35.784Z,13.46
2023-03-01T00:26:02.013Z,13.48
2023-03-01T00:28:28.112Z,13.48
2023-03-01T00:30:54.315Z,13.45
2023-03-01T00:33:20.464Z,13.46
2023-03-01T00:35:46.622Z,13.46
2023-03-01T00:38:12.735Z,13.48
2023-03-01T00:40:38.851Z,13.47
2023-03-01T00:43:04.971Z,13.46
2023-03-01T00:45:31.058Z,13.45
2023-03-01T00:47:57.173Z,13.46
2023-03-01T00:50:23.318Z,13.45
2023-03-01T00:52:49.420Z,13.45
2023-03-01T00:55:15.534Z,13.45
2023-03-01T00:57:41.628Z,13.44
2023-03-01T01:00:07.742Z,13.44
2023-03-01T01:02:33.941Z,13.44
2023-03-01T01:05:00.054Z,13.44
2023-03-01T01:07:26.155Z,13.43
2023-03-01T01:09:52.267Z,13.43
2023-03-01T01:12:18.364Z,13.43
2023-03-01T01:14:44.457Z,13.44
2023-03-01T01:17:10.568Z,13.43
2023-03-01T01:19:36.667Z,13.43
2023-03-01T01:22:02.763Z,13.43
2023-03-01T01:24:28.886Z,13.42
2023-03-01T01:26:55.001Z,13.43
2023-03-01T01:29:21.139Z,13.42
2023-03-01T01:31:47.301Z,13.42
2023-03-01T01:34:13.414Z,13.42
2023-03-01T01:36:39.509Z,13.42
2023-03-01T01:39:05.634Z,13.42
2023-03-01T01:41:31.733Z,13.43
2023-03-01T01:43:57.843Z,13.42
2023-03-01T01:46:24.030Z,13.42
2023-03-01T01:48:50.148Z,13.41
2023-03-01T01:51:16.251Z,13.41
2023-03-01T01:53:42.379Z,13.42
2023-03-01T01:56:08.506Z,13.41
2023-03-01T01:58:34.606Z,13.41
2023-03-01T02:01:00.728Z,13.41
2023-03-01T02:03:26.902Z,13.41
2023-03-01T02:05:55.376Z,13.41
2023-03-01T02:08:21.751Z,13.41
2023-03-01T02:10:47.850Z,13.41
2023-03-01T02:13:13.987Z,13.40
2023-03-01T02:15:40.175Z,13.41
2023-03-01T02:18:06.275Z,13.39
2023-03-01T02:20:32.391Z,13.40
2023-03-01T02:22:58.494Z,13.39
2023-03-01T02:25:24.591Z,13.39
2023-03-01T02:27:50.703Z,13.39
2023-03-01T02:30:16.884Z,13.39
2023-03-01T02:32:43.037Z,13.39
2023-03-01T02:35:09.169Z,13.40
2023-03-01T02:37:35.294Z,13.38
2023-03-01T02:40:01.433Z,13.38
2023-03-01T02:42:27.528Z,13.38
2023-03-01T02:44:53.666Z,13.37
2023-03-01T02:47:19.780Z,13.37
2023-03-01T02:49:45.889Z,13.37
2023-03-01T02:52:11.998Z,13.35
2023-03-01T02:54:38.096Z,13.36
2023-03-01T02:57:04.217Z,13.37
2023-03-01T02:59:30.381Z,13.35
2023-03-01T03:01:56.485Z,13.36
2023-03-01T03:04:22.593Z,13.35
2023-03-01T03:06:48.874Z,13.36
2023-03-01T03:09:16.763Z,13.35
2023-03-01T03:11:42.978Z,13.34
2023-03-01T03:14:09.094Z,13.34
2023-03-01T03:16:35.248Z,13.34
2023-03-01T03:19:01.391Z,13.35
2023-03-01T03:21:27.511Z,13.34
2023-03-01T03:23:53.607Z,13.34
2023-03-01T03:26:19.716Z,13.32
2023-03-01T03:28:45.815Z,13.33
2023-03-01T03:31:11.930Z,13.34
2023-03-01T03:33:38.058Z,13.33
2023-03-01T03:36:04.249Z,13.33
2023-03-01T03:38:30.381Z,13.32
2023-03-01T03:40:56.660Z,13.33
2023-03-01T03:43:22.805Z,13.32
2023-03-01T03:45:50.162Z,13.32
2023-03-01T03:48:16.330Z,13.31
2023-03-01T03:50:44.399Z,13.30
2023-03-01T03:53:10.607Z,13.30
2023-03-01T03:55:36.705Z,13.31
2023-03-01T03:58:02.828Z,13.30
2023-03-01T04:00:28.918Z,13.30
2023-03-01T04:02:55.081Z,13.29
2023-03-01T04:05:21.228Z,13.28
2023-03-01T04:07:47.334Z,13.30
2023-03-01T04:10:13.435Z,13.28
2023-03-01T04:12:39.551Z,13.29
2023-03-01T04:15:05.656Z,13.30
2023-03-01T04:17:31.766Z,13.28
2023-03-01T04:19:57.911Z,13.29
2023-03-01T04:22:24.014Z,13.28
2023-03-01T04:24:50.114Z,13.28
2023-03-01T04:27:16.256Z,13.27
2023-03-01T04:29:42.383Z,13.27
2023-03-01T04:32:08.561Z,13.28
2023-03-01T04:34:34.735Z,13.28
2023-03-01T04:37:00.834Z,13.29
2023-03-01T04:39:26.941Z,13.28
2023-03-01T04:41:53.552Z,13.27
2023-03-01T04:44:19.642Z,13.28
2023-03-01T04:46:45.736Z,13.27
2023-03-01T04:49:11.862Z,13.25
2023-03-01T04:51:37.964Z,13.25
2023-03-01T04:54:04.071Z,13.25
2023-03-01T04:56:30.418Z,13.26
2023-03-01T04:58:56.672Z,13.26
2023-03-01T05:01:22.807Z,13.25
2023-03-01T05:03:48.928Z,13.25
2023-03-01T05:06:15.036Z,13.25
2023-03-01T05:08:41.161Z,13.25
2023-03-01T05:11:07.294Z,13.25
2023-03-01T05:13:33.389Z,13.24
2023-03-01T05:15:59.561Z,13.22
2023-03-01T05:18:25.695Z,13.22
2023-03-01T05:20:51.800Z,13.22
2023-03-01T05:23:17.908Z,13.22
2023-03-01T05:25:44.025Z,13.22
2023-03-01T05:28:10.115Z,13.22
2023-03-01T05:30:36.208Z,13.22
2023-03-01T05:33:02.345Z,13.22
2023-03-01T05:35:28.468Z,13.21
2023-03-01T05:37:54.576Z,13.21
2023-03-01T05:40:20.696Z,13.22
2023-03-01T05:42:46.779Z,13.20
2023-03-01T05:45:12.876Z,13.21
2023-03-01T05:47:38.994Z,13.21
2023-03-01T05:50:05.094Z,13.19
2023-03-01T05:52:31.209Z,13.20
2023-03-01T05:54:57.315Z,13.19
2023-03-01T05:57:23.440Z,13.19
2023-03-01T05:59:49.545Z,13.19
2023-03-01T06:02:15.652Z,13.18
2023-03-01T06:04:41.861Z,13.17
2023-03-01T06:07:08.007Z,13.17
2023-03-01T06:09:34.154Z,13.18
2023-03-01T06:12:00.260Z,13.16
2023-03-01T06:14:26.378Z,13.15
2023-03-01T06:16:52.509Z,13.17
2023-03-01T06:19:18.598Z,13.16
2023-03-01T06:21:44.738Z,13.17
2023-03-01T06:24:10.869Z,13.15
2023-03-01T06:26:36.958Z,13.14
2023-03-01T06:29:03.084Z,13.14
2023-03-01T06:31:29.246Z,13.14
2023-03-01T06:33:55.380Z,13.14
2023-03-01T06:36:21.480Z,13.13
2023-03-01T06:38:47.606Z,13.14
2023-03-01T06:41:13.693Z,13.13
2023-03-01T06:43:39.805Z,13.13
2023-03-01T06:46:06.356Z,13.13
2023-03-01T06:48:32.479Z,13.13
2023-03-01T06:50:58.598Z,13.12
2023-03-01T06:53:24.723Z,13.12
2023-03-01T06:55:53.818Z,13.12
2023-03-01T06:58:19.921Z,13.10
2023-03-01T07:00:46.412Z,13.11
2023-03-01T07:03:12.551Z,13.11
2023-03-01T07:05:38.697Z,13.09
2023-03-01T07:08:04.841Z,13.11
2023-03-01T07:10:31.032Z,13.11
2023-03-01T07:12:57.171Z,13.10
2023-03-01T07:15:23.294Z,13.10
2023-03-01T07:17:49.389Z,13.11
2023-03-01T07:20:15.506Z,13.11
2023-03-01T07:22:41.672Z,13.09
2023-03-01T07:25:07.768Z,13.09
2023-03-01T07:27:33.875Z,13.10
2023-03-01T07:30:00.007Z,13.08
2023-03-01T07:32:26.210Z,13.09
2023-03-01T07:34:52.360Z,13.10
2023-03-01T07:37:18.505Z,13.10
2023-03-01T07:39:44.609Z,13.09
2023-03-01T07:42:10.696Z,13.09
2023-03-01T07:44:36.807Z,13.07
2023-03-01T07:47:02.904Z,13.07
2023-03-01T07:49:28.998Z,13.08
2023-03-01T07:51:55.663Z,13.08
2023-03-01T07:54:21.767Z,13.08
2023-03-01T07:56:48.112Z,13.08
2023-03-01T07:59:14.256Z,13.06
2023-03-01T08:01:40.384Z,13.07
2023-03-01T08:04:06.553Z,13.07
2023-03-01T08:06:32.978Z,13.06
2023-03-01T08:08:59.260Z,13.05
2023-03-01T08:11:25.392Z,13.05
2023-03-01T08:13:53.832Z,13.04
2023-03-01T08:16:20.473Z,13.04
2023-03-01T08:18:46.642Z,13.05
2023-03-01T08:21:12.800Z,13.05
2023-03-01T08:23:38.943Z,13.04
2023-03-01T08:26:05.174Z,13.04
2023-03-01T08:28:31.289Z,13.05
2023-03-01T08:30:57.405Z,13.04
2023-03-01T08:33:23.539Z,13.04
2023-03-01T08:35:49.721Z,13.03
2023-03-01T08:38:15.812Z,13.03
2023-03-01T08:40:41.916Z,13.03
2023-03-01T08:43:08.034Z,13.03
2023-03-01T08:45:34.216Z,13.04
2023-03-01T08:48:00.335Z,13.03
2023-03-01T08:50:26.461Z,13.02
2023-03-01T08:52:52.565Z,13.02
2023-03-01T08:55:18.678Z,13.02
2023-03-01T08:57:44.899Z,13.03
2023-03-01T09:00:11.004Z,13.02
2023-03-01T09:02:37.142Z,13.03
2023-03-01T09:05:03.276Z,13.00
2023-03-01T09:07:29.415Z,13.01
2023-03-01T09:09:55.554Z,13.02
2023-03-01T09:12:21.675Z,13.00
2023-03-01T09:14:47.775Z,12.99
2023-03-01T09:17:13.885Z,12.99
2023-03-01T09:19:40.002Z,13.00
2023-03-01T09:22:06.173Z,13.00
2023-03-01T09:24:32.262Z,12.99
2023-03-01T09:26:58.495Z,12.98
2023-03-01T09:29:24.619Z,12.99
2023-03-01T09:31:50.776Z,12.99
2023-03-01T09:34:16.929Z,12.99
2023-03-01T09:36:43.035Z,12.98
2023-03-01T09:39:09.176Z,12.98
2023-03-01T09:41:35.312Z,12.97
2023-03-01T09:44:01.457Z,12.98
2023-03-01T09:46:27.764Z,12.98
2023-03-01T09:48:54.048Z,12.97
2023-03-01T09:51:20.244Z,12.97
2023-03-01T09:53:46.355Z,12.98
2023-03-01T09:56:12.895Z,12.97
2023-03-01T09:58:39.077Z,12.98
2023-03-01T10:01:05.220Z,12.98
2023-03-01T10:03:31.357Z,12.99
2023-03-01T10:05:57.489Z,12.98
2023-03-01T10:08:23.591Z,12.98
2023-03-01T10:10:49.703Z,12.98
2023-03-01T10:13:15.796Z,12.98
2023-03-01T10:15:41.912Z,12.98
2023-03-01T10:18:08.048Z,13.00
2023-03-01T10:20:34.137Z,13.00
2023-03-01T10:23:00.221Z,13.00
2023-03-01T10:25:26.326Z,13.01
2023-03-01T10:27:52.459Z,13.02
2023-03-01T10:30:19.794Z,13.00
2023-03-01T10:32:48.129Z,13.02
2023-03-01T10:35:16.428Z,13.01
2023-03-01T10:37:42.541Z,13.00
2023-03-01T10:40:08.719Z,13.02
2023-03-01T10:42:35.005Z,13.02
2023-03-01T10:45:01.189Z,13.02
2023-03-01T10:47:27.307Z,13.03
2023-03-01T10:49:53.571Z,13.02
2023-03-01T10:52:19.700Z,13.02
2023-03-01T10:54:45.828Z,13.02
2023-03-01T10:57:12.073Z,13.02
2023-03-01T10:59:38.203Z,13.03
2023-03-01T11:02:12.105Z,13.03
2023-03-01T11:04:41.249Z,13.02
2023-03-01T11:07:07.526Z,13.01
2023-03-01T11:09:33.656Z,12.99
2023-03-01T11:11:59.761Z,13.00
2023-03-01T11:14:27.759Z,13.00
2023-03-01T11:16:54.218Z,13.00
2023-03-01T11:19:20.350Z,13.01
2023-03-01T11:21:56.880Z,13.03
2023-03-01T11:24:25.086Z,13.01
2023-03-01T11:26:52.201Z,13.03
2023-03-01T11:29:18.400Z,13.02
2023-03-01T11:31:57.336Z,13.03
2023-03-01T11:34:26.268Z,13.02
2023-03-01T11:36:52.619Z,13.05
2023-03-01T11:39:18.779Z,13.04
2023-03-01T11:41:44.961Z,13.04
2023-03-01T11:44:11.149Z,13.04
2023-03-01T11:46:37.486Z,13.04
2023-03-01T11:49:03.760Z,13.04
2023-03-01T11:51:30.109Z,13.02
2023-03-01T11:53:56.397Z,13.00
2023-03-01T11:56:23.944Z,12.98
2023-03-01T11:58:50.232Z,12.96
2023-03-01T12:01:22.402Z,12.96
2023-03-01T12:03:48.755Z,12.95
2023-03-01T12:06:14.900Z,12.95
2023-03-01T12:08:41.070Z,12.94
2023-03-01T12:11:07.191Z,12.94
2023-03-01T12:13:33.301Z,12.95
2023-03-01T12:15:59.414Z,12.95
2023-03-01T12:21:15.643Z,12.94
2023-03-01T12:23:41.832Z,12.94
2023-03-01T12:26:07.975Z,12.93
2023-03-01T12:28:34.639Z,12.96
2023-03-01T12:31:00.764Z,12.94
2023-03-01T12:33:29.285Z,12.95
2023-03-01T12:35:55.549Z,12.93
2023-03-01T12:38:21.718Z,12.93
2023-03-01T12:40:47.810Z,12.94
2023-03-01T12:43:14.031Z,12.93
2023-03-01T12:45:40.333Z,12.94
2023-03-01T12:48:06.505Z,12.94
2023-03-01T12:50:32.688Z,12.94
2023-03-01T12:52:58.878Z,12.96
2023-03-01T12:55:25.017Z,12.94
2023-03-01T12:57:51.224Z,12.95
2023-03-01T13:00:17.380Z,12.95
2023-03-01T13:02:43.594Z,12.96
2023-03-01T13:05:10.322Z,12.96
2023-03-01T13:07:37.680Z,12.99
2023-03-01T13:10:06.663Z,12.99
2023-03-01T13:12:34.446Z,13.00
2023-03-01T13:15:00.725Z,13.00
2023-03-01T13:17:26.859Z,13.02
2023-03-01T13:19:55.096Z,13.03
2023-03-01T13:22:21.226Z,13.02
2023-03-01T13:24:47.334Z,13.02
2023-03-01T13:27:13.506Z,13.01
2023-03-01T13:29:39.633Z,13.01
2023-03-01T13:32:05.988Z,13.00
2023-03-01T13:34:32.209Z,13.01
2023-03-01T13:36:58.415Z,13.02
2023-03-01T13:39:24.508Z,13.03
2023-03-01T13:41:50.646Z,13.03
2023-03-01T13:44:16.743Z,13.02
2023-03-01T13:46:42.985Z,13.04
2023-03-01T13:49:09.171Z,13.04
2023-03-01T13:51:35.340Z,13.05
2023-03-01T13:54:01.574Z,13.06
2023-03-01T13:56:27.743Z,13.06
2023-03-01T13:58:53.845Z,13.05
2023-03-01T14:01:20.009Z,13.04
2023-03-01T14:03:46.231Z,13.05
2023-03-01T14:06:15.941Z,13.05
2023-03-01T14:08:43.389Z,13.06
2023-03-01T14:11:09.634Z,13.07
2023-03-01T14:13:35.736Z,13.08
2023-03-01T14:16:01.884Z,13.08
2023-03-01T14:18:28.031Z,13.09
2023-03-01T14:20:54.161Z,13.09
2023-03-01T14:23:20.258Z,13.09
2023-03-01T14:25:46.483Z,13.09
2023-03-01T14:28:12.635Z,13.09
2023-03-01T14:30:38.866Z,13.09
2023-03-01T14:33:04.990Z,13.10
2023-03-01T14:35:31.129Z,13.12
2023-03-01T14:37:57.279Z,13.11
2023-03-01T14:40:23.409Z,13.10
2023-03-01T14:42:49.529Z,13.11
2023-03-01T14:45:16.868Z,13.12
2023-03-01T14:47:44.403Z,13.12
2023-03-01T14:50:10.556Z,13.13
2023-03-01T14:52:36.747Z,13.13
2023-03-01T14:55:02.871Z,13.13
2023-03-01T14:57:28.968Z,13.13
2023-03-01T14:59:55.115Z,13.13
2023-03-01T15:02:21.242Z,13.12
2023-03-01T15:04:47.419Z,13.14
2023-03-01T15:07:13.529Z,13.14
2023-03-01T15:09:39.643Z,13.14
2023-03-01T15:12:05.801Z,13.15
2023-03-01T15:14:31.932Z,13.15
2023-03-01T15:16:58.066Z,13.19
2023-03-01T15:19:24.176Z,13.19
2023-03-01T15:21:50.409Z,13.19
2023-03-01T18:13:05.713Z,14.36
2023-03-01T18:16:00.229Z,14.41
2023-03-01T18:18:26.436Z,14.35
2023-03-01T18:20:52.602Z,14.22
2023-03-01T18:23:18.803Z,14.16
2023-03-01T18:25:45.253Z,14.10
2023-03-01T18:28:11.375Z,14.07
2023-03-01T18:30:37.568Z,14.05
2023-03-01T18:33:03.734Z,14.04
2023-03-01T18:35:30.129Z,14.05
2023-03-01T18:37:56.311Z,14.02
2023-03-01T18:40:22.489Z,14.00
2023-03-01T18:42:48.890Z,13.97
2023-03-01T18:45:15.217Z,13.96
2023-03-01T18:47:41.427Z,13.94
2023-03-01T18:50:07.569Z,13.94
2023-03-01T18:52:33.875Z,13.92
2023-03-01T18:55:00.155Z,13.91
2023-03-01T18:57:26.261Z,13.92
2023-03-01T18:59:52.421Z,13.92
2023-03-01T19:02:18.540Z,13.89
2023-03-01T19:04:47.927Z,13.90
2023-03-01T19:07:14.084Z,13.90
2023-03-01T19:09:40.277Z,13.90
2023-03-01T19:12:06.437Z,13.88
2023-03-01T19:14:32.855Z,13.89
2023-03-01T19:16:59.113Z,13.87
2023-03-01T19:19:25.216Z,13.85
2023-03-01T19:22:04.919Z,13.84
2023-03-01T19:24:31.838Z,13.84
2023-03-01T19:26:57.962Z,13.83
2023-03-01T19:29:24.072Z,13.84
2023-03-01T19:31:50.454Z,13.83
2023-03-01T19:34:16.578Z,13.83
2023-03-01T19:36:43.084Z,13.81
2023-03-01T19:39:09.487Z,13.81
2023-03-01T19:41:37.739Z,13.81
2023-03-01T19:44:03.906Z,13.83
2023-03-01T19:46:30.630Z,13.80
2023-03-01T19:48:56.950Z,13.81
2023-03-01T19:51:23.044Z,13.81
2023-03-01T19:53:49.263Z,13.81
2023-03-01T19:56:15.385Z,13.81
2023-03-01T19:58:41.536Z,13.81
2023-03-01T20:01:07.671Z,13.79
2023-03-01T20:03:33.789Z,13.78
2023-03-01T20:05:59.907Z,13.78
2023-03-01T20:08:26.077Z,13.77
2023-03-01T20:10:52.212Z,13.77
2023-03-01T20:13:18.336Z,13.77
2023-03-01T20:15:44.637Z,13.77
2023-03-01T20:18:10.952Z,13.76
2023-03-01T20:20:37.145Z,13.76
2023-03-01T20:23:03.314Z,13.75
2023-03-01T20:25:29.448Z,13.74
2023-03-01T20:27:55.593Z,13.75
2023-03-01T20:30:21.821Z,13.74
2023-03-01T20:32:47.927Z,13.74
2023-03-01T20:35:14.093Z,13.74
2023-03-01T20:37:40.240Z,13.74
2023-03-01T20:40:06.351Z,13.74
2023-03-01T20:42:32.505Z,13.74
2023-03-01T20:44:58.653Z,13.73
2023-03-01T20:47:24.876Z,13.73
2023-03-01T20:49:51.035Z,13.74
2023-03-01T20:52:17.183Z,13.74
2023-03-01T20:54:43.308Z,13.74
2023-03-01T20:57:09.414Z,13.74
2023-03-01T20:59:35.550Z,13.73
2023-03-01T21:02:01.722Z,13.73
2023-03-01T21:04:27.833Z,13.73
2023-03-01T21:06:53.950Z,13.73
2023-03-01T21:09:20.084Z,13.73
2023-03-01T21:11:46.180Z,13.74
2023-03-01T21:14:12.305Z,13.75
2023-03-01T21:16:38.468Z,13.74
2023-03-01T21:19:04.591Z,13.73
2023-03-01T21:21:30.740Z,13.74
2023-03-01T21:23:56.861Z,13.75
2023-03-01T21:26:23.025Z,13.74
2023-03-01T21:28:49.207Z,13.74
2023-03-01T21:31:15.353Z,13.74
2023-03-01T21:33:41.478Z,13.75
2023-03-01T21:36:07.770Z,13.75
2023-03-01T21:38:33.905Z,13.74
2023-03-01T21:41:00.112Z,13.74
2023-03-01T21:43:26.294Z,13.75
2023-03-01T21:45:52.483Z,13.75
2023-03-01T21:48:18.758Z,13.75
2023-03-01T21:50:45.015Z,13.75
2023-03-01T21:53:12.675Z,13.75
2023-03-01T21:55:38.840Z,13.75
2023-03-01T21:58:04.971Z,13.75
2023-03-01T22:00:31.103Z,13.75
2023-03-01T22:02:57.246Z,13.75
2023-03-01T22:05:23.399Z,13.74
2023-03-01T22:07:49.528Z,13.74
2023-03-01T22:10:15.751Z,13.74
2023-03-01T22:12:41.868Z,13.74
2023-03-01T22:15:08.018Z,13.75
2023-03-01T22:17:34.128Z,13.75
2023-03-01T22:20:00.261Z,13.75
2023-03-01T22:22:26.447Z,13.74
2023-03-01T22:24:52.559Z,13.74
2023-03-01T22:27:18.687Z,13.75
2023-03-01T22:29:44.878Z,13.74
2023-03-01T22:32:11.243Z,13.74
2023-03-01T22:34:37.521Z,13.73
2023-03-01T22:37:03.607Z,13.74
2023-03-01T22:39:29.721Z,13.75
2023-03-01T22:41:55.932Z,13.73
2023-03-01T22:44:22.047Z,13.74
2023-03-01T22:46:48.260Z,13.73
2023-03-01T22:49:14.477Z,13.74
2023-03-01T22:51:40.570Z,13.73
2023-03-01T22:54:06.671Z,13.73
2023-03-01T22:56:33.137Z,13.72
2023-03-01T22:58:59.507Z,13.72
2023-03-01T23:01:25.613Z,13.72
2023-03-01T23:03:51.755Z,13.72
2023-03-01T23:14:16.290Z,13.72
2023-03-01T23:16:42.605Z,13.71
2023-03-01T23:19:08.787Z,13.72
2023-03-01T23:21:34.905Z,13.72
2023-03-01T23:24:01.015Z,13.71
2023-03-01T23:26:27.179Z,13.71
2023-03-01T23:28:53.320Z,13.70
2023-03-01T23:31:19.486Z,13.69
2023-03-01T23:33:45.621Z,13.70
2023-03-01T23:36:13.467Z,13.68
2023-03-01T23:38:40.626Z,13.67
2023-03-01T23:41:06.732Z,13.68
2023-03-01T23:43:32.895Z,13.68
2023-03-01T23:45:59.022Z,13.69
2023-03-01T23:48:25.176Z,13.70
2023-03-01T23:50:51.354Z,13.70
2023-03-01T23:53:17.535Z,13.69
2023-03-01T23:55:43.654Z,13.71
2023-03-01T23:58:09.881Z,13.69
